sensor_id;sensor_type;location;lat;lon;timestamp;P1;durP1;ratioP1;P2;durP2;ratioP2
78542;SDS011;67836;52.430;14.446;2023-06-22T00:00:32;20.35;;;14.07;;
78542;SDS011;67836;52.430;14.446;2023-06-22T00:03:17;20.30;;;14.90;;
78542;SDS011;67836;52.430;14.446;2023-06-22T00:06:02;21.00;;;14.77;;
78542;SDS011;67836;52.430;14.446;2023-06-22T00:08:46;21.02;;;15.48;;
78542;SDS011;67836;52.430;14.446;2023-06-22T00:11:30;20.27;;;15.20;;
78542;SDS011;67836;52.430;14.446;2023-06-22T00:14:17;21.70;;;15.05;;
78542;SDS011;67836;52.430;14.446;2023-06-22T00:17:01;22.88;;;15.38;;
78542;SDS011;67836;52.430;14.446;2023-06-22T00:19:46;20.70;;;15.07;;
78542;SDS011;67836;52.430;14.446;2023-06-22T00:22:31;21.83;;;14.52;;
78542;SDS011;67836;52.430;14.446;2023-06-22T00:25:15;19.85;;;13.90;;
78542;SDS011;67836;52.430;14.446;2023-06-22T00:27:59;22.27;;;15.18;;
78542;SDS011;67836;52.430;14.446;2023-06-22T00:30:43;21.30;;;15.25;;
78542;SDS011;67836;52.430;14.446;2023-06-22T00:33:26;21.55;;;14.32;;
78542;SDS011;67836;52.430;14.446;2023-06-22T00:36:12;22.90;;;14.90;;
78542;SDS011;67836;52.430;14.446;2023-06-22T00:38:59;21.95;;;14.20;;
78542;SDS011;67836;52.430;14.446;2023-06-22T00:41:43;20.15;;;14.68;;
78542;SDS011;67836;52.430;14.446;2023-06-22T00:47:11;19.30;;;13.70;;
78542;SDS011;67836;52.430;14.446;2023-06-22T00:49:56;19.40;;;13.82;;
78542;SDS011;67836;52.430;14.446;2023-06-22T00:52:41;20.35;;;14.57;;
78542;SDS011;67836;52.430;14.446;2023-06-22T00:55:26;23.63;;;15.93;;
78542;SDS011;67836;52.430;14.446;2023-06-22T00:58:11;21.45;;;15.15;;
78542;SDS011;67836;52.430;14.446;2023-06-22T01:00:56;21.90;;;14.55;;
78542;SDS011;67836;52.430;14.446;2023-06-22T01:03:40;20.10;;;14.70;;
78542;SDS011;67836;52.430;14.446;2023-06-22T01:06:26;21.45;;;16.00;;
78542;SDS011;67836;52.430;14.446;2023-06-22T01:09:17;20.15;;;14.27;;
78542;SDS011;67836;52.430;14.446;2023-06-22T01:12:04;21.42;;;15.23;;
78542;SDS011;67836;52.430;14.446;2023-06-22T01:14:55;20.58;;;13.48;;
78542;SDS011;67836;52.430;14.446;2023-06-22T01:18:03;23.20;;;15.60;;
78542;SDS011;67836;52.430;14.446;2023-06-22T01:20:48;22.23;;;15.30;;
78542;SDS011;67836;52.430;14.446;2023-06-22T01:26:25;22.58;;;15.18;;
78542;SDS011;67836;52.430;14.446;2023-06-22T01:29:14;24.90;;;16.10;;
78542;SDS011;67836;52.430;14.446;2023-06-22T01:32:00;24.35;;;16.40;;
78542;SDS011;67836;52.430;14.446;2023-06-22T01:34:45;21.45;;;13.68;;
78542;SDS011;67836;52.430;14.446;2023-06-22T01:37:30;22.63;;;16.08;;
78542;SDS011;67836;52.430;14.446;2023-06-22T01:40:15;21.30;;;15.93;;
78542;SDS011;67836;52.430;14.446;2023-06-22T01:43:00;22.88;;;16.00;;
78542;SDS011;67836;52.430;14.446;2023-06-22T01:45:44;22.05;;;15.82;;
78542;SDS011;67836;52.430;14.446;2023-06-22T01:48:28;21.83;;;15.18;;
78542;SDS011;67836;52.430;14.446;2023-06-22T01:51:13;24.02;;;16.98;;
78542;SDS011;67836;52.430;14.446;2023-06-22T01:53:57;25.65;;;16.27;;
78542;SDS011;67836;52.430;14.446;2023-06-22T01:56:42;23.23;;;16.65;;
78542;SDS011;67836;52.430;14.446;2023-06-22T01:59:31;24.58;;;17.25;;
78542;SDS011;67836;52.430;14.446;2023-06-22T02:02:17;25.45;;;16.50;;
78542;SDS011;67836;52.430;14.446;2023-06-22T02:05:05;25.65;;;16.88;;
78542;SDS011;67836;52.430;14.446;2023-06-22T02:08:00;24.63;;;16.88;;
78542;SDS011;67836;52.430;14.446;2023-06-22T02:10:46;23.95;;;16.42;;
78542;SDS011;67836;52.430;14.446;2023-06-22T02:13:32;25.58;;;17.25;;
78542;SDS011;67836;52.430;14.446;2023-06-22T02:16:16;25.38;;;17.02;;
78542;SDS011;67836;52.430;14.446;2023-06-22T02:19:02;25.58;;;17.20;;
78542;SDS011;67836;52.430;14.446;2023-06-22T02:21:50;24.58;;;17.15;;
78542;SDS011;67836;52.430;14.446;2023-06-22T02:24:34;25.45;;;16.75;;
78542;SDS011;67836;52.430;14.446;2023-06-22T02:27:18;23.77;;;15.98;;
78542;SDS011;67836;52.430;14.446;2023-06-22T02:30:02;24.67;;;17.45;;
78542;SDS011;67836;52.430;14.446;2023-06-22T02:32:47;25.17;;;17.55;;
78542;SDS011;67836;52.430;14.446;2023-06-22T02:35:30;24.40;;;17.00;;
78542;SDS011;67836;52.430;14.446;2023-06-22T02:38:15;23.92;;;17.05;;
78542;SDS011;67836;52.430;14.446;2023-06-22T02:40:59;25.15;;;16.92;;
78542;SDS011;67836;52.430;14.446;2023-06-22T02:43:44;25.13;;;16.83;;
78542;SDS011;67836;52.430;14.446;2023-06-22T02:46:29;24.95;;;17.67;;
78542;SDS011;67836;52.430;14.446;2023-06-22T02:49:12;24.88;;;18.58;;
78542;SDS011;67836;52.430;14.446;2023-06-22T02:51:57;25.08;;;16.52;;
78542;SDS011;67836;52.430;14.446;2023-06-22T02:54:41;23.90;;;16.80;;
78542;SDS011;67836;52.430;14.446;2023-06-22T02:57:24;25.42;;;17.65;;
78542;SDS011;67836;52.430;14.446;2023-06-22T03:00:09;27.15;;;18.08;;
78542;SDS011;67836;52.430;14.446;2023-06-22T03:05:47;25.50;;;17.48;;
78542;SDS011;67836;52.430;14.446;2023-06-22T03:08:31;26.02;;;17.65;;
78542;SDS011;67836;52.430;14.446;2023-06-22T03:11:15;20.70;;;14.52;;
78542;SDS011;67836;52.430;14.446;2023-06-22T03:14:00;24.23;;;16.08;;
78542;SDS011;67836;52.430;14.446;2023-06-22T03:16:44;25.88;;;17.77;;
78542;SDS011;67836;52.430;14.446;2023-06-22T03:19:28;29.50;;;17.95;;
78542;SDS011;67836;52.430;14.446;2023-06-22T03:22:14;25.63;;;17.83;;
78542;SDS011;67836;52.430;14.446;2023-06-22T03:24:59;26.08;;;18.10;;
78542;SDS011;67836;52.430;14.446;2023-06-22T03:27:42;26.02;;;18.05;;
78542;SDS011;67836;52.430;14.446;2023-06-22T03:30:30;23.70;;;17.55;;
78542;SDS011;67836;52.430;14.446;2023-06-22T03:33:15;24.80;;;17.52;;
78542;SDS011;67836;52.430;14.446;2023-06-22T03:35:58;23.92;;;17.27;;
78542;SDS011;67836;52.430;14.446;2023-06-22T03:38:42;24.30;;;16.98;;
78542;SDS011;67836;52.430;14.446;2023-06-22T03:41:26;22.75;;;16.95;;
78542;SDS011;67836;52.430;14.446;2023-06-22T03:44:11;23.60;;;16.20;;
78542;SDS011;67836;52.430;14.446;2023-06-22T03:46:56;22.63;;;15.80;;
78542;SDS011;67836;52.430;14.446;2023-06-22T03:49:40;25.98;;;17.65;;
78542;SDS011;67836;52.430;14.446;2023-06-22T03:52:24;23.27;;;17.23;;
78542;SDS011;67836;52.430;14.446;2023-06-22T03:55:09;24.45;;;17.52;;
78542;SDS011;67836;52.430;14.446;2023-06-22T03:57:53;24.38;;;17.20;;
78542;SDS011;67836;52.430;14.446;2023-06-22T04:00:40;24.23;;;17.83;;
78542;SDS011;67836;52.430;14.446;2023-06-22T04:03:24;25.83;;;17.95;;
78542;SDS011;67836;52.430;14.446;2023-06-22T04:06:08;23.98;;;17.73;;
78542;SDS011;67836;52.430;14.446;2023-06-22T04:08:52;23.80;;;16.65;;
78542;SDS011;67836;52.430;14.446;2023-06-22T04:11:36;21.02;;;14.73;;
78542;SDS011;67836;52.430;14.446;2023-06-22T04:14:20;25.25;;;17.23;;
78542;SDS011;67836;52.430;14.446;2023-06-22T04:17:05;25.55;;;17.65;;
78542;SDS011;67836;52.430;14.446;2023-06-22T04:19:48;24.27;;;17.92;;
78542;SDS011;67836;52.430;14.446;2023-06-22T04:22:32;25.67;;;17.95;;
78542;SDS011;67836;52.430;14.446;2023-06-22T04:25:16;24.83;;;15.90;;
78542;SDS011;67836;52.430;14.446;2023-06-22T04:28:00;25.67;;;17.60;;
78542;SDS011;67836;52.430;14.446;2023-06-22T04:30:46;24.70;;;17.50;;
78542;SDS011;67836;52.430;14.446;2023-06-22T04:33:31;27.08;;;18.27;;
78542;SDS011;67836;52.430;14.446;2023-06-22T04:36:15;24.38;;;17.90;;
78542;SDS011;67836;52.430;14.446;2023-06-22T04:38:59;25.08;;;17.33;;
78542;SDS011;67836;52.430;14.446;2023-06-22T04:41:43;23.92;;;16.73;;
78542;SDS011;67836;52.430;14.446;2023-06-22T04:44:27;20.23;;;14.30;;
78542;SDS011;67836;52.430;14.446;2023-06-22T04:47:11;24.85;;;16.98;;
78542;SDS011;67836;52.430;14.446;2023-06-22T04:49:55;26.60;;;17.05;;
78542;SDS011;67836;52.430;14.446;2023-06-22T04:52:39;22.40;;;16.30;;
78542;SDS011;67836;52.430;14.446;2023-06-22T04:55:24;20.98;;;15.63;;
78542;SDS011;67836;52.430;14.446;2023-06-22T04:58:09;23.38;;;15.82;;
78542;SDS011;67836;52.430;14.446;2023-06-22T05:00:56;20.73;;;14.85;;
78542;SDS011;67836;52.430;14.446;2023-06-22T05:03:40;21.48;;;14.95;;
78542;SDS011;67836;52.430;14.446;2023-06-22T05:06:25;20.15;;;14.38;;
78542;SDS011;67836;52.430;14.446;2023-06-22T05:09:09;20.08;;;13.57;;
78542;SDS011;67836;52.430;14.446;2023-06-22T05:11:53;17.90;;;12.35;;
78542;SDS011;67836;52.430;14.446;2023-06-22T05:14:37;16.13;;;9.88;;
78542;SDS011;67836;52.430;14.446;2023-06-22T05:17:21;15.57;;;10.05;;
78542;SDS011;67836;52.430;14.446;2023-06-22T05:20:05;14.68;;;10.55;;
78542;SDS011;67836;52.430;14.446;2023-06-22T05:22:50;15.80;;;9.80;;
78542;SDS011;67836;52.430;14.446;2023-06-22T05:25:34;15.13;;;10.80;;
78542;SDS011;67836;52.430;14.446;2023-06-22T05:28:18;11.27;;;7.82;;
78542;SDS011;67836;52.430;14.446;2023-06-22T05:31:06;13.13;;;8.07;;
78542;SDS011;67836;52.430;14.446;2023-06-22T05:33:51;12.45;;;8.25;;
78542;SDS011;67836;52.430;14.446;2023-06-22T05:36:36;11.55;;;6.97;;
78542;SDS011;67836;52.430;14.446;2023-06-22T05:39:20;11.55;;;7.45;;
78542;SDS011;67836;52.430;14.446;2023-06-22T05:42:05;12.15;;;7.47;;
78542;SDS011;67836;52.430;14.446;2023-06-22T05:44:50;11.18;;;7.05;;
78542;SDS011;67836;52.430;14.446;2023-06-22T05:47:36;10.95;;;6.57;;
78542;SDS011;67836;52.430;14.446;2023-06-22T05:50:21;9.63;;;6.22;;
78542;SDS011;67836;52.430;14.446;2023-06-22T05:53:05;9.82;;;6.60;;
78542;SDS011;67836;52.430;14.446;2023-06-22T05:55:51;9.38;;;5.93;;
78542;SDS011;67836;52.430;14.446;2023-06-22T05:58:36;10.00;;;5.38;;
78542;SDS011;67836;52.430;14.446;2023-06-22T06:01:20;9.68;;;5.68;;
78542;SDS011;67836;52.430;14.446;2023-06-22T06:04:05;9.50;;;5.55;;
78542;SDS011;67836;52.430;14.446;2023-06-22T06:06:51;9.38;;;5.30;;
78542;SDS011;67836;52.430;14.446;2023-06-22T06:09:35;7.65;;;4.65;;
78542;SDS011;67836;52.430;14.446;2023-06-22T06:12:19;8.25;;;4.65;;
78542;SDS011;67836;52.430;14.446;2023-06-22T06:15:03;7.82;;;4.80;;
78542;SDS011;67836;52.430;14.446;2023-06-22T06:17:48;6.90;;;3.70;;
78542;SDS011;67836;52.430;14.446;2023-06-22T06:20:32;4.95;;;2.50;;
78542;SDS011;67836;52.430;14.446;2023-06-22T06:23:16;5.10;;;2.53;;
78542;SDS011;67836;52.430;14.446;2023-06-22T06:26:00;4.70;;;2.20;;
78542;SDS011;67836;52.430;14.446;2023-06-22T06:28:45;5.80;;;2.47;;
78542;SDS011;67836;52.430;14.446;2023-06-22T06:31:29;6.13;;;2.35;;
78542;SDS011;67836;52.430;14.446;2023-06-22T06:34:13;4.45;;;2.20;;
78542;SDS011;67836;52.430;14.446;2023-06-22T06:36:57;5.82;;;2.58;;
78542;SDS011;67836;52.430;14.446;2023-06-22T06:39:41;5.75;;;2.58;;
78542;SDS011;67836;52.430;14.446;2023-06-22T06:42:25;6.30;;;2.67;;
78542;SDS011;67836;52.430;14.446;2023-06-22T06:45:15;5.40;;;2.30;;
78542;SDS011;67836;52.430;14.446;2023-06-22T06:48:00;4.78;;;2.30;;
78542;SDS011;67836;52.430;14.446;2023-06-22T06:50:44;5.70;;;2.28;;
78542;SDS011;67836;52.430;14.446;2023-06-22T06:53:28;4.85;;;2.30;;
78542;SDS011;67836;52.430;14.446;2023-06-22T06:56:12;6.22;;;2.20;;
78542;SDS011;67836;52.430;14.446;2023-06-22T06:58:58;4.10;;;2.00;;
78542;SDS011;67836;52.430;14.446;2023-06-22T07:01:42;5.30;;;2.42;;
78542;SDS011;67836;52.430;14.446;2023-06-22T07:04:27;4.40;;;2.20;;
78542;SDS011;67836;52.430;14.446;2023-06-22T07:07:12;7.05;;;2.72;;
78542;SDS011;67836;52.430;14.446;2023-06-22T07:09:56;4.47;;;2.25;;
78542;SDS011;67836;52.430;14.446;2023-06-22T07:12:40;4.85;;;2.08;;
78542;SDS011;67836;52.430;14.446;2023-06-22T07:15:24;3.92;;;2.08;;
78542;SDS011;67836;52.430;14.446;2023-06-22T07:18:08;4.40;;;2.15;;
78542;SDS011;67836;52.430;14.446;2023-06-22T07:20:53;6.10;;;2.60;;
78542;SDS011;67836;52.430;14.446;2023-06-22T07:23:37;5.50;;;2.63;;
78542;SDS011;67836;52.430;14.446;2023-06-22T07:26:21;5.40;;;2.60;;
78542;SDS011;67836;52.430;14.446;2023-06-22T07:29:04;6.03;;;2.83;;
78542;SDS011;67836;52.430;14.446;2023-06-22T07:31:49;5.47;;;2.97;;
78542;SDS011;67836;52.430;14.446;2023-06-22T07:34:35;5.57;;;3.00;;
78542;SDS011;67836;52.430;14.446;2023-06-22T07:37:19;5.70;;;3.33;;
78542;SDS011;67836;52.430;14.446;2023-06-22T07:40:03;5.57;;;3.35;;
78542;SDS011;67836;52.430;14.446;2023-06-22T07:42:50;6.30;;;3.20;;
78542;SDS011;67836;52.430;14.446;2023-06-22T07:45:35;5.30;;;3.10;;
78542;SDS011;67836;52.430;14.446;2023-06-22T07:48:20;5.32;;;3.00;;
78542;SDS011;67836;52.430;14.446;2023-06-22T07:51:04;5.35;;;2.78;;
78542;SDS011;67836;52.430;14.446;2023-06-22T07:53:49;5.20;;;2.70;;
78542;SDS011;67836;52.430;14.446;2023-06-22T07:56:33;6.43;;;3.22;;
78542;SDS011;67836;52.430;14.446;2023-06-22T07:59:18;4.18;;;2.50;;
78542;SDS011;67836;52.430;14.446;2023-06-22T08:02:02;5.07;;;2.67;;
78542;SDS011;67836;52.430;14.446;2023-06-22T08:04:47;6.40;;;3.13;;
78542;SDS011;67836;52.430;14.446;2023-06-22T08:07:31;6.10;;;3.55;;
78542;SDS011;67836;52.430;14.446;2023-06-22T08:10:17;5.70;;;3.33;;
78542;SDS011;67836;52.430;14.446;2023-06-22T08:13:01;8.20;;;3.30;;
78542;SDS011;67836;52.430;14.446;2023-06-22T08:15:45;8.30;;;3.00;;
78542;SDS011;67836;52.430;14.446;2023-06-22T08:18:29;4.45;;;2.08;;
78542;SDS011;67836;52.430;14.446;2023-06-22T08:21:13;5.10;;;1.75;;
78542;SDS011;67836;52.430;14.446;2023-06-22T08:23:57;5.20;;;2.20;;
78542;SDS011;67836;52.430;14.446;2023-06-22T08:26:41;4.47;;;1.88;;
78542;SDS011;67836;52.430;14.446;2023-06-22T08:29:26;5.28;;;2.10;;
78542;SDS011;67836;52.430;14.446;2023-06-22T08:32:10;5.30;;;2.22;;
78542;SDS011;67836;52.430;14.446;2023-06-22T08:34:56;5.10;;;2.10;;
78542;SDS011;67836;52.430;14.446;2023-06-22T08:37:40;4.20;;;2.17;;
78542;SDS011;67836;52.430;14.446;2023-06-22T08:40:24;5.72;;;2.30;;
78542;SDS011;67836;52.430;14.446;2023-06-22T08:43:09;5.20;;;2.40;;
78542;SDS011;67836;52.430;14.446;2023-06-22T08:45:53;4.88;;;2.30;;
78542;SDS011;67836;52.430;14.446;2023-06-22T08:48:37;4.00;;;1.83;;
78542;SDS011;67836;52.430;14.446;2023-06-22T08:51:21;4.00;;;1.92;;
78542;SDS011;67836;52.430;14.446;2023-06-22T08:54:05;3.50;;;1.90;;
78542;SDS011;67836;52.430;14.446;2023-06-22T08:56:49;4.78;;;2.00;;
78542;SDS011;67836;52.430;14.446;2023-06-22T08:59:34;4.10;;;1.83;;
78542;SDS011;67836;52.430;14.446;2023-06-22T09:02:18;3.53;;;1.83;;
78542;SDS011;67836;52.430;14.446;2023-06-22T09:05:03;4.38;;;2.00;;
78542;SDS011;67836;52.430;14.446;2023-06-22T09:07:48;4.40;;;1.90;;
78542;SDS011;67836;52.430;14.446;2023-06-22T09:14:13;4.80;;;1.95;;
78542;SDS011;67836;52.430;14.446;2023-06-22T09:16:57;3.58;;;1.92;;
78542;SDS011;67836;52.430;14.446;2023-06-22T09:19:41;4.28;;;1.60;;
78542;SDS011;67836;52.430;14.446;2023-06-22T09:22:26;3.65;;;2.00;;
78542;SDS011;67836;52.430;14.446;2023-06-22T09:25:12;4.85;;;2.10;;
78542;SDS011;67836;52.430;14.446;2023-06-22T09:27:56;3.70;;;1.77;;
78542;SDS011;67836;52.430;14.446;2023-06-22T09:30:42;5.07;;;2.10;;
78542;SDS011;67836;52.430;14.446;2023-06-22T09:33:27;3.65;;;2.00;;
78542;SDS011;67836;52.430;14.446;2023-06-22T09:36:11;5.43;;;2.30;;
78542;SDS011;67836;52.430;14.446;2023-06-22T09:38:55;4.15;;;1.90;;
78542;SDS011;67836;52.430;14.446;2023-06-22T09:41:43;4.35;;;2.05;;
78542;SDS011;67836;52.430;14.446;2023-06-22T10:10:05;5.05;;;2.25;;
78542;SDS011;67836;52.430;14.446;2023-06-22T10:12:57;4.93;;;2.13;;
78542;SDS011;67836;52.430;14.446;2023-06-22T10:15:45;4.70;;;2.20;;
78542;SDS011;67836;52.430;14.446;2023-06-22T10:18:34;5.18;;;2.40;;
78542;SDS011;67836;52.430;14.446;2023-06-22T10:21:18;4.75;;;2.33;;
78542;SDS011;67836;52.430;14.446;2023-06-22T10:24:02;5.45;;;2.58;;
78542;SDS011;67836;52.430;14.446;2023-06-22T10:26:49;6.80;;;2.13;;
78542;SDS011;67836;52.430;14.446;2023-06-22T10:32:06;5.75;;;2.50;;
78542;SDS011;67836;52.430;14.446;2023-06-22T10:34:50;5.65;;;2.50;;
78542;SDS011;67836;52.430;14.446;2023-06-22T10:37:35;4.97;;;2.70;;
78542;SDS011;67836;52.430;14.446;2023-06-22T10:40:19;4.63;;;2.53;;
78542;SDS011;67836;52.430;14.446;2023-06-22T10:43:03;4.82;;;2.45;;
78542;SDS011;67836;52.430;14.446;2023-06-22T10:45:47;5.55;;;2.40;;
78542;SDS011;67836;52.430;14.446;2023-06-22T10:48:31;4.60;;;2.15;;
78542;SDS011;67836;52.430;14.446;2023-06-22T10:51:14;5.32;;;2.42;;
78542;SDS011;67836;52.430;14.446;2023-06-22T10:54:44;3.95;;;2.00;;
78542;SDS011;67836;52.430;14.446;2023-06-22T10:57:28;5.20;;;2.57;;
78542;SDS011;67836;52.430;14.446;2023-06-22T11:00:13;4.95;;;2.90;;
78542;SDS011;67836;52.430;14.446;2023-06-22T11:02:57;5.20;;;2.50;;
78542;SDS011;67836;52.430;14.446;2023-06-22T11:05:41;4.97;;;2.22;;
78542;SDS011;67836;52.430;14.446;2023-06-22T11:08:26;5.47;;;2.90;;
78542;SDS011;67836;52.430;14.446;2023-06-22T11:11:09;5.13;;;2.65;;
78542;SDS011;67836;52.430;14.446;2023-06-22T11:13:54;4.10;;;2.25;;
78542;SDS011;67836;52.430;14.446;2023-06-22T11:16:38;5.55;;;2.58;;
78542;SDS011;67836;52.430;14.446;2023-06-22T11:19:22;5.55;;;2.50;;
78542;SDS011;67836;52.430;14.446;2023-06-22T11:22:06;4.95;;;2.63;;
78542;SDS011;67836;52.430;14.446;2023-06-22T11:24:50;6.65;;;2.90;;
78542;SDS011;67836;52.430;14.446;2023-06-22T11:27:34;6.20;;;3.00;;
78542;SDS011;67836;52.430;14.446;2023-06-22T11:30:19;5.80;;;2.67;;
78542;SDS011;67836;52.430;14.446;2023-06-22T11:33:03;5.72;;;2.60;;
78542;SDS011;67836;52.430;14.446;2023-06-22T11:35:47;7.43;;;2.53;;
78542;SDS011;67836;52.430;14.446;2023-06-22T11:38:31;5.35;;;2.55;;
78542;SDS011;67836;52.430;14.446;2023-06-22T11:41:15;5.13;;;2.80;;
78542;SDS011;67836;52.430;14.446;2023-06-22T11:43:59;5.65;;;2.83;;
78542;SDS011;67836;52.430;14.446;2023-06-22T11:46:43;3.88;;;2.10;;
78542;SDS011;67836;52.430;14.446;2023-06-22T11:49:28;5.25;;;2.83;;
78542;SDS011;67836;52.430;14.446;2023-06-22T11:52:12;5.22;;;2.40;;
78542;SDS011;67836;52.430;14.446;2023-06-22T11:54:56;6.88;;;2.50;;
78542;SDS011;67836;52.430;14.446;2023-06-22T11:57:52;5.50;;;2.80;;
78542;SDS011;67836;52.430;14.446;2023-06-22T12:00:38;5.93;;;3.22;;
78542;SDS011;67836;52.430;14.446;2023-06-22T12:03:26;3.97;;;2.45;;
78542;SDS011;67836;52.430;14.446;2023-06-22T12:06:13;5.72;;;2.83;;
78542;SDS011;67836;52.430;14.446;2023-06-22T12:08:58;5.13;;;2.63;;
78542;SDS011;67836;52.430;14.446;2023-06-22T12:11:44;4.95;;;2.63;;
78542;SDS011;67836;52.430;14.446;2023-06-22T12:14:30;5.78;;;3.30;;
78542;SDS011;67836;52.430;14.446;2023-06-22T12:17:14;5.07;;;2.80;;
78542;SDS011;67836;52.430;14.446;2023-06-22T12:19:58;5.03;;;2.85;;
78542;SDS011;67836;52.430;14.446;2023-06-22T12:22:42;5.72;;;3.10;;
78542;SDS011;67836;52.430;14.446;2023-06-22T12:25:27;5.80;;;3.03;;
78542;SDS011;67836;52.430;14.446;2023-06-22T12:28:11;4.95;;;2.67;;
78542;SDS011;67836;52.430;14.446;2023-06-22T12:30:55;5.45;;;2.90;;
78542;SDS011;67836;52.430;14.446;2023-06-22T12:33:39;4.75;;;2.40;;
78542;SDS011;67836;52.430;14.446;2023-06-22T12:36:24;5.38;;;2.67;;
78542;SDS011;67836;52.430;14.446;2023-06-22T12:39:08;4.57;;;2.90;;
78542;SDS011;67836;52.430;14.446;2023-06-22T12:41:52;4.43;;;2.47;;
78542;SDS011;67836;52.430;14.446;2023-06-22T12:44:37;5.22;;;2.60;;
78542;SDS011;67836;52.430;14.446;2023-06-22T12:47:21;6.15;;;2.95;;
78542;SDS011;67836;52.430;14.446;2023-06-22T12:50:05;5.18;;;2.85;;
78542;SDS011;67836;52.430;14.446;2023-06-22T12:52:49;5.35;;;2.75;;
78542;SDS011;67836;52.430;14.446;2023-06-22T12:55:34;7.03;;;2.70;;
78542;SDS011;67836;52.430;14.446;2023-06-22T12:58:18;5.53;;;2.72;;
78542;SDS011;67836;52.430;14.446;2023-06-22T13:01:03;5.72;;;3.08;;
78542;SDS011;67836;52.430;14.446;2023-06-22T13:03:46;5.90;;;3.30;;
78542;SDS011;67836;52.430;14.446;2023-06-22T13:06:31;5.38;;;3.28;;
78542;SDS011;67836;52.430;14.446;2023-06-22T13:09:15;5.47;;;3.00;;
78542;SDS011;67836;52.430;14.446;2023-06-22T13:12:01;5.68;;;2.90;;
78542;SDS011;67836;52.430;14.446;2023-06-22T13:14:45;5.28;;;3.03;;
78542;SDS011;67836;52.430;14.446;2023-06-22T13:17:30;6.43;;;3.47;;
78542;SDS011;67836;52.430;14.446;2023-06-22T13:20:13;7.15;;;3.65;;
78542;SDS011;67836;52.430;14.446;2023-06-22T13:22:58;5.63;;;3.10;;
78542;SDS011;67836;52.430;14.446;2023-06-22T13:25:42;6.22;;;3.40;;
78542;SDS011;67836;52.430;14.446;2023-06-22T13:28:26;6.03;;;2.85;;
78542;SDS011;67836;52.430;14.446;2023-06-22T13:31:10;4.97;;;3.10;;
78542;SDS011;67836;52.430;14.446;2023-06-22T13:33:54;5.57;;;3.22;;
78542;SDS011;67836;52.430;14.446;2023-06-22T13:36:38;4.75;;;2.58;;
78542;SDS011;67836;52.430;14.446;2023-06-22T13:39:21;22.02;;;4.65;;
78542;SDS011;67836;52.430;14.446;2023-06-22T13:42:05;5.20;;;3.03;;
78542;SDS011;67836;52.430;14.446;2023-06-22T13:44:50;5.70;;;3.10;;
78542;SDS011;67836;52.430;14.446;2023-06-22T13:47:34;5.57;;;3.28;;
78542;SDS011;67836;52.430;14.446;2023-06-22T13:50:18;6.78;;;3.70;;
78542;SDS011;67836;52.430;14.446;2023-06-22T13:53:02;5.95;;;3.20;;
78542;SDS011;67836;52.430;14.446;2023-06-22T13:55:46;6.20;;;3.50;;
78542;SDS011;67836;52.430;14.446;2023-06-22T13:58:31;6.32;;;3.15;;
78542;SDS011;67836;52.430;14.446;2023-06-22T14:01:15;6.13;;;3.45;;
78542;SDS011;67836;52.430;14.446;2023-06-22T14:03:59;8.45;;;3.70;;
78542;SDS011;67836;52.430;14.446;2023-06-22T14:06:45;6.75;;;3.38;;
78542;SDS011;67836;52.430;14.446;2023-06-22T14:09:29;5.20;;;2.70;;
78542;SDS011;67836;52.430;14.446;2023-06-22T14:12:14;6.28;;;3.35;;
78542;SDS011;67836;52.430;14.446;2023-06-22T14:14:58;5.63;;;3.10;;
78542;SDS011;67836;52.430;14.446;2023-06-22T14:17:42;7.22;;;3.95;;
78542;SDS011;67836;52.430;14.446;2023-06-22T14:20:26;7.60;;;3.72;;
78542;SDS011;67836;52.430;14.446;2023-06-22T14:23:10;6.35;;;3.35;;
78542;SDS011;67836;52.430;14.446;2023-06-22T14:25:54;5.45;;;3.15;;
78542;SDS011;67836;52.430;14.446;2023-06-22T14:28:38;4.15;;;2.78;;
78542;SDS011;67836;52.430;14.446;2023-06-22T14:31:22;6.38;;;3.60;;
78542;SDS011;67836;52.430;14.446;2023-06-22T14:34:07;6.22;;;3.10;;
78542;SDS011;67836;52.430;14.446;2023-06-22T14:36:51;11.18;;;4.13;;
78542;SDS011;67836;52.430;14.446;2023-06-22T14:39:35;6.20;;;3.53;;
78542;SDS011;67836;52.430;14.446;2023-06-22T14:42:19;6.65;;;3.30;;
78542;SDS011;67836;52.430;14.446;2023-06-22T14:45:03;6.03;;;3.53;;
78542;SDS011;67836;52.430;14.446;2023-06-22T14:47:48;6.35;;;3.40;;
78542;SDS011;67836;52.430;14.446;2023-06-22T14:50:32;5.88;;;3.53;;
78542;SDS011;67836;52.430;14.446;2023-06-22T14:53:16;5.88;;;3.55;;
78542;SDS011;67836;52.430;14.446;2023-06-22T14:56:01;5.95;;;3.22;;
78542;SDS011;67836;52.430;14.446;2023-06-22T14:58:45;7.82;;;3.80;;
78542;SDS011;67836;52.430;14.446;2023-06-22T15:01:30;6.40;;;3.78;;
78542;SDS011;67836;52.430;14.446;2023-06-22T15:04:14;7.15;;;3.75;;
78542;SDS011;67836;52.430;14.446;2023-06-22T15:06:58;7.30;;;4.35;;
78542;SDS011;67836;52.430;14.446;2023-06-22T15:09:42;7.82;;;3.50;;
78542;SDS011;67836;52.430;14.446;2023-06-22T15:12:29;6.90;;;4.05;;
78542;SDS011;67836;52.430;14.446;2023-06-22T15:15:13;7.10;;;3.67;;
78542;SDS011;67836;52.430;14.446;2023-06-22T15:17:57;6.40;;;3.90;;
78542;SDS011;67836;52.430;14.446;2023-06-22T15:20:42;7.93;;;3.55;;
78542;SDS011;67836;52.430;14.446;2023-06-22T15:23:28;6.65;;;4.03;;
78542;SDS011;67836;52.430;14.446;2023-06-22T15:26:13;7.88;;;4.38;;
78542;SDS011;67836;52.430;14.446;2023-06-22T15:28:57;7.00;;;3.85;;
78542;SDS011;67836;52.430;14.446;2023-06-22T15:31:41;6.97;;;4.07;;
78542;SDS011;67836;52.430;14.446;2023-06-22T15:34:25;6.05;;;3.55;;
78542;SDS011;67836;52.430;14.446;2023-06-22T15:37:09;7.35;;;3.72;;
78542;SDS011;67836;52.430;14.446;2023-06-22T15:39:53;6.45;;;3.67;;
78542;SDS011;67836;52.430;14.446;2023-06-22T15:42:39;6.55;;;4.00;;
78542;SDS011;67836;52.430;14.446;2023-06-22T15:45:24;6.82;;;3.42;;
78542;SDS011;67836;52.430;14.446;2023-06-22T15:48:08;6.97;;;3.30;;
78542;SDS011;67836;52.430;14.446;2023-06-22T15:50:53;6.57;;;3.88;;
78542;SDS011;67836;52.430;14.446;2023-06-22T15:53:37;6.47;;;3.45;;
78542;SDS011;67836;52.430;14.446;2023-06-22T15:56:21;6.63;;;3.92;;
78542;SDS011;67836;52.430;14.446;2023-06-22T15:59:07;6.95;;;3.42;;
78542;SDS011;67836;52.430;14.446;2023-06-22T16:01:51;5.65;;;3.17;;
78542;SDS011;67836;52.430;14.446;2023-06-22T16:04:35;6.53;;;3.80;;
78542;SDS011;67836;52.430;14.446;2023-06-22T16:07:19;7.88;;;3.90;;
78542;SDS011;67836;52.430;14.446;2023-06-22T16:10:04;5.70;;;3.33;;
78542;SDS011;67836;52.430;14.446;2023-06-22T16:12:50;4.82;;;2.28;;
78542;SDS011;67836;52.430;14.446;2023-06-22T16:15:34;5.75;;;3.40;;
78542;SDS011;67836;52.430;14.446;2023-06-22T16:18:18;6.65;;;3.55;;
78542;SDS011;67836;52.430;14.446;2023-06-22T16:21:02;6.38;;;3.78;;
78542;SDS011;67836;52.430;14.446;2023-06-22T16:23:48;6.28;;;3.45;;
78542;SDS011;67836;52.430;14.446;2023-06-22T16:26:39;7.13;;;3.90;;
78542;SDS011;67836;52.430;14.446;2023-06-22T16:29:24;6.00;;;3.70;;
78542;SDS011;67836;52.430;14.446;2023-06-22T16:32:09;5.43;;;3.03;;
78542;SDS011;67836;52.430;14.446;2023-06-22T16:34:53;7.90;;;3.83;;
78542;SDS011;67836;52.430;14.446;2023-06-22T16:37:39;6.40;;;3.65;;
78542;SDS011;67836;52.430;14.446;2023-06-22T16:40:24;5.65;;;2.80;;
78542;SDS011;67836;52.430;14.446;2023-06-22T16:43:08;7.57;;;3.45;;
78542;SDS011;67836;52.430;14.446;2023-06-22T16:45:52;5.75;;;3.28;;
78542;SDS011;67836;52.430;14.446;2023-06-22T16:48:37;6.75;;;3.50;;